createdAt,value
2019-03-13T00:01:05.904Z,120.00
2019-03-13T00:03:38.218Z,96.00
2019-03-13T00:06:10.610Z,88.00
2019-03-13T00:08:53.274Z,84.60
2019-03-13T00:11:25.859Z,82.60
2019-03-13T00:13:57.556Z,81.60
2019-03-13T00:16:29.695Z,83.00
2019-03-13T00:19:01.878Z,88.00
2019-03-13T00:21:33.878Z,81.40
2019-03-13T00:24:05.848Z,80.40
2019-03-13T00:26:37.704Z,78.60
2019-03-13T00:29:18.468Z,83.40
2019-03-13T00:31:50.915Z,81.20
2019-03-13T00:34:22.874Z,77.80
2019-03-13T00:36:55.077Z,78.20
2019-03-13T00:39:27.999Z,81.60
2019-03-13T00:42:00.276Z,79.40
2019-03-13T00:44:32.190Z,75.80
2019-03-13T00:47:04.422Z,83.60
2019-03-13T00:49:36.475Z,85.80
2019-03-13T00:52:08.808Z,85.20
2019-03-13T00:54:40.476Z,79.60
2019-03-13T00:57:13.403Z,88.60
2019-03-13T00:59:45.139Z,86.80
2019-03-13T01:02:29.550Z,96.00
2019-03-13T01:05:08.974Z,96.00
2019-03-13T01:07:41.494Z,99.60
2019-03-13T01:10:13.973Z,99.40
2019-03-13T01:12:46.287Z,81.40
2019-03-13T01:15:18.187Z,90.00
2019-03-13T01:17:50.137Z,91.20
2019-03-13T01:20:22.274Z,82.00
2019-03-13T01:22:54.320Z,84.60
2019-03-13T01:25:26.170Z,85.00
2019-03-13T01:27:58.066Z,85.60
2019-03-13T01:30:33.723Z,85.80
2019-03-13T01:33:09.684Z,86.60
2019-03-13T01:35:49.182Z,74.60
2019-03-13T01:38:21.150Z,77.80
2019-03-13T01:40:53.177Z,78.40
2019-03-13T01:43:24.732Z,71.40
2019-03-13T01:45:56.833Z,76.60
2019-03-13T01:48:28.779Z,74.40
2019-03-13T01:51:01.001Z,81.80
2019-03-13T01:53:32.875Z,87.80
2019-03-13T01:56:04.890Z,95.00
2019-03-13T01:58:36.797Z,79.80
2019-03-13T02:01:08.840Z,76.80
2019-03-13T02:03:40.877Z,75.60
2019-03-13T02:06:12.860Z,68.00
2019-03-13T02:08:45.967Z,69.20
2019-03-13T02:11:18.907Z,79.80
2019-03-13T02:13:50.732Z,74.60
2019-03-13T02:16:22.521Z,72.40
2019-03-13T02:18:54.142Z,75.20
2019-03-13T02:21:26.146Z,72.80
2019-03-13T02:23:57.932Z,72.20
2019-03-13T02:26:29.680Z,65.20
2019-03-13T02:29:01.366Z,74.00
2019-03-13T02:31:33.494Z,72.20
2019-03-13T02:34:05.177Z,70.00
2019-03-13T02:36:37.148Z,78.80
2019-03-13T02:39:08.940Z,73.20
2019-03-13T02:41:40.617Z,70.40
2019-03-13T02:44:12.350Z,76.80
2019-03-13T02:46:44.188Z,78.40
2019-03-13T02:49:15.939Z,72.80
2019-03-13T02:51:47.508Z,70.60
2019-03-13T02:54:19.098Z,78.20
2019-03-13T02:56:50.963Z,75.40
2019-03-13T02:59:22.697Z,80.20
2019-03-13T03:02:13.548Z,75.80
2019-03-13T03:04:45.892Z,86.40
2019-03-13T03:07:17.628Z,90.80
2019-03-13T03:09:49.366Z,79.80
2019-03-13T03:12:21.220Z,88.00
2019-03-13T03:15:03.846Z,84.00
2019-03-13T03:17:35.716Z,72.00
2019-03-13T03:20:10.105Z,79.60
2019-03-13T03:22:41.893Z,74.60
2019-03-13T03:25:14.608Z,78.00
2019-03-13T03:27:46.438Z,74.80
2019-03-13T03:30:20.940Z,74.80
2019-03-13T03:32:52.982Z,76.60
2019-03-13T03:35:24.749Z,65.40
2019-03-13T03:37:56.333Z,69.40
2019-03-13T03:40:28.282Z,73.80
2019-03-13T03:42:59.981Z,66.00
2019-03-13T03:45:32.839Z,75.60
2019-03-13T03:48:06.814Z,65.80
2019-03-13T03:50:38.655Z,69.80
2019-03-13T03:53:10.396Z,67.20
2019-03-13T03:55:42.357Z,72.60
2019-03-13T03:58:14.379Z,64.20
2019-03-13T04:00:45.976Z,71.80
2019-03-13T04:03:17.908Z,71.80
2019-03-13T04:05:49.842Z,69.00
2019-03-13T04:08:22.629Z,66.20
2019-03-13T04:10:54.307Z,62.20
2019-03-13T04:13:26.299Z,61.20
2019-03-13T04:15:58.134Z,62.00
2019-03-13T04:18:29.996Z,63.00
2019-03-13T04:21:01.908Z,60.20
2019-03-13T04:23:33.904Z,62.20
2019-03-13T04:26:06.008Z,63.40
2019-03-13T04:28:39.925Z,60.20
2019-03-13T04:31:11.790Z,59.60
2019-03-13T04:33:44.184Z,60.00
2019-03-13T04:36:16.159Z,61.60
2019-03-13T04:38:48.289Z,63.40
2019-03-13T04:41:20.109Z,58.40
2019-03-13T04:43:52.343Z,59.40
2019-03-13T04:46:24.525Z,55.40
2019-03-13T04:48:56.202Z,60.00
2019-03-13T04:51:28.098Z,60.20
2019-03-13T04:53:59.872Z,59.00
2019-03-13T04:56:34.467Z,56.20
2019-03-13T04:59:06.112Z,54.80
2019-03-13T05:01:38.302Z,59.80
2019-03-13T05:04:10.269Z,57.00
2019-03-13T05:06:42.310Z,59.20
2019-03-13T05:09:20.232Z,59.80
2019-03-13T05:11:52.011Z,51.40
2019-03-13T05:14:24.193Z,57.00
2019-03-13T05:16:56.254Z,59.20
2019-03-13T05:19:28.255Z,59.40
2019-03-13T05:22:00.187Z,53.80
2019-03-13T05:24:32.268Z,54.80
2019-03-13T05:27:07.106Z,52.00
2019-03-13T05:30:22.456Z,53.80
2019-03-13T05:32:54.201Z,50.60
2019-03-13T05:35:26.391Z,53.00
2019-03-13T05:37:58.477Z,49.40
2019-03-13T05:41:43.527Z,51.00
2019-03-13T05:44:15.489Z,50.60
2019-03-13T05:46:47.586Z,52.80
2019-03-13T05:49:19.217Z,47.80
2019-03-13T05:51:53.876Z,46.80
2019-03-13T05:54:26.585Z,48.00
2019-03-13T05:56:58.513Z,49.20
2019-03-13T06:01:08.294Z,47.80
2019-03-13T06:03:40.465Z,48.00
2019-03-13T06:06:12.279Z,47.80
2019-03-13T06:08:44.826Z,48.20
2019-03-13T06:12:32.066Z,48.60
2019-03-13T06:15:05.925Z,46.80
2019-03-13T06:19:41.552Z,46.80
2019-03-13T06:22:13.945Z,46.00
2019-03-13T06:24:48.144Z,48.00
2019-03-13T06:27:20.651Z,47.20
2019-03-13T06:29:52.653Z,47.00
2019-03-13T06:32:24.702Z,44.20
2019-03-13T06:34:56.295Z,49.20
2019-03-13T06:38:05.409Z,45.40
2019-03-13T06:40:37.216Z,41.80
2019-03-13T06:43:10.249Z,34.00
2019-03-13T06:45:41.989Z,44.80
2019-03-13T06:48:14.133Z,43.60
2019-03-13T06:50:46.885Z,44.20
2019-03-13T06:53:20.425Z,41.60
2019-03-13T06:55:52.097Z,41.40
2019-03-13T06:58:45.716Z,41.40
2019-03-13T07:03:19.072Z,45.80
2019-03-13T07:06:11.052Z,40.40
2019-03-13T07:10:37.519Z,40.40
2019-03-13T07:13:20.895Z,43.20
2019-03-13T07:16:20.199Z,40.40
2019-03-13T07:19:32.357Z,41.00
2019-03-13T07:22:26.091Z,36.00
2019-03-13T07:25:20.127Z,42.20
2019-03-13T07:28:15.137Z,40.80
2019-03-13T07:31:15.306Z,41.60
2019-03-13T07:34:06.827Z,44.00
2019-03-13T07:39:53.919Z,44.00
2019-03-13T07:42:36.188Z,41.40
2019-03-13T07:47:54.514Z,43.60
2019-03-13T07:50:51.466Z,44.60
2019-03-13T07:57:00.564Z,47.20
2019-03-13T08:03:33.736Z,52.20
2019-03-13T08:07:03.766Z,50.20
2019-03-13T08:11:07.167Z,47.40
2019-03-13T08:14:13.100Z,46.60
2019-03-13T08:17:45.727Z,50.20
2019-03-13T08:20:37.249Z,50.00
2019-03-13T08:23:57.643Z,51.00
2019-03-13T08:26:46.390Z,51.60
2019-03-13T08:29:46.408Z,54.40
2019-03-13T08:32:36.091Z,58.40
2019-03-13T08:35:26.183Z,55.60
2019-03-13T08:38:03.044Z,60.00
2019-03-13T08:40:47.229Z,59.80
2019-03-13T08:43:26.410Z,70.20
2019-03-13T08:46:05.776Z,59.20
2019-03-13T08:48:48.039Z,56.60
2019-03-13T08:51:31.455Z,59.40
2019-03-13T08:54:16.796Z,59.20
2019-03-13T08:57:16.954Z,57.60
2019-03-13T09:00:07.112Z,57.80
2019-03-13T09:03:03.109Z,60.00
2019-03-13T09:05:50.456Z,52.80
2019-03-13T09:08:49.160Z,58.80
2019-03-13T09:11:43.700Z,53.00
2019-03-13T09:18:12.162Z,51.00
2019-03-13T09:21:08.342Z,51.60
2019-03-13T09:29:09.947Z,54.00
2019-03-13T09:33:01.734Z,48.00
2019-03-13T09:36:16.682Z,48.60
2019-03-13T09:40:36.815Z,44.40
2019-03-13T09:45:48.397Z,48.80
2019-03-13T09:49:55.721Z,48.00
2019-03-13T09:52:46.344Z,49.00
2019-03-13T09:58:16.932Z,54.40
2019-03-13T10:03:32.520Z,51.00
2019-03-13T10:08:13.002Z,50.20
2019-03-13T10:10:56.654Z,54.60
2019-03-13T10:17:12.915Z,53.20
2019-03-13T10:23:43.474Z,52.60
2019-03-13T10:26:35.025Z,53.40
2019-03-13T10:33:20.080Z,54.00
2019-03-13T10:40:10.802Z,56.60
2019-03-13T10:45:41.247Z,52.60
2019-03-13T10:53:14.205Z,54.20
2019-03-13T10:56:10.152Z,59.00
2019-03-13T11:04:44.795Z,54.00
2019-03-13T11:07:31.885Z,58.40
2019-03-13T11:16:09.936Z,56.20
2019-03-13T11:23:57.238Z,55.20
2019-03-13T11:26:56.643Z,60.20
2019-03-13T11:31:28.060Z,55.80
2019-03-13T11:34:34.336Z,57.00
2019-03-13T11:37:39.866Z,59.20
2019-03-13T11:40:24.401Z,51.60
2019-03-13T11:43:19.129Z,58.00
2019-03-13T11:46:12.489Z,56.20
2019-03-13T11:49:09.227Z,57.80
2019-03-13T11:52:03.901Z,56.80
2019-03-13T11:54:53.381Z,54.80
2019-03-13T11:57:53.398Z,56.80
2019-03-13T12:00:40.447Z,61.20
2019-03-13T12:03:24.271Z,59.40
2019-03-13T12:06:20.604Z,63.00
2019-03-13T12:09:23.780Z,75.20
2019-03-13T12:12:14.472Z,74.40
2019-03-13T12:15:03.356Z,74.80
2019-03-13T12:17:48.031Z,71.00
2019-03-13T12:20:29.595Z,68.40
2019-03-13T12:23:08.920Z,65.40
2019-03-13T12:25:49.985Z,59.20
2019-03-13T12:28:39.078Z,62.00
2019-03-13T12:31:28.336Z,61.20
2019-03-13T12:34:17.275Z,65.40
2019-03-13T12:37:07.605Z,65.40
2019-03-13T12:39:54.080Z,65.80
2019-03-13T12:42:42.573Z,67.60
2019-03-13T12:45:43.913Z,67.20
2019-03-13T12:48:43.617Z,61.60
2019-03-13T12:51:31.544Z,63.80
2019-03-13T12:54:28.192Z,59.40
2019-03-13T12:57:17.451Z,60.80
2019-03-13T13:00:11.035Z,59.80
2019-03-13T13:02:55.462Z,61.20
2019-03-13T13:05:46.280Z,65.20
2019-03-13T13:08:55.095Z,63.20
2019-03-13T13:11:51.339Z,62.00
2019-03-13T13:14:41.823Z,65.80
2019-03-13T13:17:26.062Z,80.40
2019-03-13T13:19:57.433Z,64.00
2019-03-13T13:22:28.933Z,78.40
2019-03-13T13:25:00.396Z,85.00
2019-03-13T13:27:31.896Z,82.20
2019-03-13T13:30:03.653Z,76.20
2019-03-13T13:32:35.476Z,82.40
2019-03-13T13:35:07.862Z,83.60
2019-03-13T13:37:39.688Z,75.00
2019-03-13T13:40:11.524Z,72.40
2019-03-13T13:42:43.391Z,70.40
2019-03-13T13:45:55.499Z,65.80
2019-03-13T13:48:27.475Z,73.20
2019-03-13T13:50:58.942Z,69.80
2019-03-13T13:53:30.472Z,74.20
2019-03-13T13:56:03.614Z,75.20
2019-03-13T13:58:35.907Z,71.40
2019-03-13T14:01:07.606Z,67.80
2019-03-13T14:03:40.097Z,77.80
2019-03-13T14:06:11.828Z,74.40
2019-03-13T14:08:43.582Z,77.60
2019-03-13T14:11:15.176Z,83.60
2019-03-13T14:13:46.591Z,81.60
2019-03-13T14:16:18.256Z,73.60
2019-03-13T14:18:50.676Z,79.80
2019-03-13T14:21:23.031Z,83.20
2019-03-13T14:23:54.631Z,77.00
2019-03-13T14:26:26.118Z,80.40
2019-03-13T14:28:57.537Z,83.00
2019-03-13T14:31:28.976Z,82.20
2019-03-13T14:34:00.336Z,77.80
2019-03-13T14:36:31.886Z,77.80
2019-03-13T14:39:04.268Z,70.20
2019-03-13T14:41:37.581Z,76.40
2019-03-13T14:44:09.562Z,88.40
2019-03-13T14:46:41.086Z,77.60
2019-03-13T14:49:12.817Z,75.40
2019-03-13T14:51:45.768Z,67.80
2019-03-13T14:54:17.450Z,86.80
2019-03-13T14:56:49.147Z,80.00
2019-03-13T14:59:20.859Z,77.00
2019-03-13T15:01:53.528Z,69.20
2019-03-13T15:04:25.347Z,68.80
2019-03-13T15:06:57.189Z,77.20
2019-03-13T15:09:29.240Z,76.20
2019-03-13T15:12:00.733Z,74.60
2019-03-13T15:14:32.524Z,80.20
2019-03-13T15:17:04.052Z,77.80
2019-03-13T15:19:35.945Z,83.60
2019-03-13T15:22:07.449Z,79.60
2019-03-13T15:24:39.236Z,86.40
2019-03-13T15:27:10.800Z,77.40
2019-03-13T15:29:43.091Z,79.80
2019-03-13T15:32:14.532Z,81.20
2019-03-13T15:34:46.375Z,81.00
2019-03-13T15:37:17.992Z,82.20
2019-03-13T15:39:50.154Z,81.40
2019-03-13T15:42:21.900Z,89.00
2019-03-13T15:44:53.447Z,80.60
2019-03-13T15:47:25.042Z,87.00
2019-03-13T15:49:56.816Z,88.00
2019-03-13T15:52:29.262Z,92.20
2019-03-13T15:55:00.798Z,91.20
2019-03-13T15:57:33.682Z,86.60
2019-03-13T16:00:05.746Z,85.00
2019-03-13T16:02:37.540Z,82.40
2019-03-13T16:05:09.362Z,87.20
2019-03-13T16:07:41.080Z,86.20
2019-03-13T16:10:13.771Z,82.00
2019-03-13T16:12:45.422Z,86.60
2019-03-13T16:15:19.320Z,82.80
2019-03-13T16:17:51.921Z,92.00
2019-03-13T16:20:23.743Z,85.40
2019-03-13T16:22:58.175Z,84.20
2019-03-13T16:25:30.004Z,89.60
2019-03-13T16:28:02.979Z,93.20
2019-03-13T16:30:38.143Z,92.60
2019-03-13T16:33:09.732Z,95.60
2019-03-13T16:35:41.581Z,96.20
2019-03-13T16:38:13.133Z,82.00
2019-03-13T16:40:44.996Z,81.80
2019-03-13T16:43:15.419Z,87.60
2019-03-13T16:45:47.731Z,92.40
2019-03-13T16:48:21.005Z,97.40
2019-03-13T16:50:52.711Z,93.80
2019-03-13T16:53:24.746Z,95.40
2019-03-13T16:55:56.729Z,102.40
2019-03-13T16:58:31.262Z,98.80
2019-03-13T17:01:05.674Z,87.20
2019-03-13T17:03:39.254Z,90.20
2019-03-13T17:06:11.218Z,97.80
2019-03-13T17:08:43.036Z,88.00
2019-03-13T17:11:14.991Z,96.20
2019-03-13T17:13:46.566Z,91.20
2019-03-13T17:16:18.603Z,90.00
2019-03-13T17:18:50.792Z,91.40
2019-03-13T17:21:22.885Z,95.40
2019-03-13T17:23:54.891Z,98.80
2019-03-13T17:26:26.545Z,107.80
2019-03-13T17:28:57.970Z,96.60
2019-03-13T17:31:29.612Z,103.00
2019-03-13T17:34:01.465Z,106.60
2019-03-13T17:36:33.218Z,100.40
2019-03-13T17:39:06.155Z,107.00
2019-03-13T17:41:39.507Z,103.00
2019-03-13T17:44:11.195Z,111.20
2019-03-13T17:46:43.017Z,117.40
2019-03-13T17:49:14.970Z,119.00
2019-03-13T17:51:48.386Z,115.60
2019-03-13T17:54:19.729Z,115.20
2019-03-13T17:56:51.153Z,117.60
2019-03-13T17:59:22.654Z,121.60
2019-03-13T18:01:54.489Z,123.40
2019-03-13T18:04:26.177Z,117.00
2019-03-13T18:06:57.973Z,121.80
2019-03-13T18:09:29.604Z,123.00
2019-03-13T18:12:01.364Z,119.40
2019-03-13T18:14:32.940Z,129.80
2019-03-13T18:17:04.655Z,120.80
2019-03-13T18:19:36.906Z,122.80
2019-03-13T18:22:08.648Z,124.00
2019-03-13T18:24:40.256Z,117.20
2019-03-13T18:27:12.071Z,126.80
2019-03-13T18:29:45.534Z,128.80
2019-03-13T18:32:17.213Z,128.80
2019-03-13T18:34:49.078Z,129.20
2019-03-13T18:37:20.961Z,123.00
2019-03-13T18:39:52.730Z,123.00
2019-03-13T18:42:24.411Z,118.40
2019-03-13T18:44:56.386Z,122.20
2019-03-13T18:47:28.019Z,123.40
2019-03-13T18:50:00.687Z,117.40
2019-03-13T18:52:33.670Z,111.20
2019-03-13T18:55:06.974Z,127.60
2019-03-13T18:57:38.466Z,120.40
2019-03-13T19:00:14.069Z,117.80
2019-03-13T19:02:46.161Z,123.20
2019-03-13T19:05:18.626Z,118.20
2019-03-13T19:07:50.628Z,126.00
2019-03-13T19:10:22.748Z,123.60
2019-03-13T19:12:54.756Z,129.60
2019-03-13T19:15:26.625Z,127.60
2019-03-13T19:18:00.814Z,117.80
2019-03-13T19:20:34.106Z,126.60
2019-03-13T19:23:05.912Z,138.40
2019-03-13T19:25:37.301Z,115.00
2019-03-13T19:28:09.029Z,130.20
2019-03-13T19:30:40.679Z,127.00
2019-03-13T19:33:12.438Z,122.00
2019-03-13T19:35:44.444Z,128.80
2019-03-13T19:38:15.979Z,123.20
2019-03-13T19:40:47.957Z,127.20
2019-03-13T19:43:19.591Z,125.20
2019-03-13T19:45:51.432Z,130.00
2019-03-13T19:48:23.012Z,124.80
2019-03-13T19:50:56.622Z,128.00
2019-03-13T19:53:28.624Z,127.00
2019-03-13T19:56:00.383Z,118.00
2019-03-13T19:58:33.320Z,119.00
2019-03-13T20:01:06.087Z,117.40
2019-03-13T20:03:37.646Z,132.80
2019-03-13T20:06:09.751Z,124.60
2019-03-13T20:08:41.284Z,118.00
2019-03-13T20:11:12.997Z,130.00
2019-03-13T20:13:44.487Z,131.20
2019-03-13T20:16:16.410Z,119.00
2019-03-13T20:18:49.861Z,126.80
2019-03-13T20:21:22.770Z,123.80
2019-03-13T20:23:54.372Z,131.00
2019-03-13T20:26:26.343Z,124.20
2019-03-13T20:28:57.806Z,126.00
2019-03-13T20:31:30.831Z,123.00
2019-03-13T20:34:02.582Z,127.40
2019-03-13T20:36:34.224Z,129.00
2019-03-13T20:39:06.367Z,132.20
2019-03-13T20:41:40.254Z,120.00
2019-03-13T20:44:11.970Z,130.40
2019-03-13T20:46:43.759Z,135.80
2019-03-13T20:49:15.465Z,130.40
2019-03-13T20:51:47.222Z,128.00
2019-03-13T20:54:18.895Z,128.20
2019-03-13T20:56:50.586Z,118.60
2019-03-13T20:59:21.947Z,133.60
2019-03-13T21:01:53.332Z,129.20
2019-03-13T21:04:24.901Z,127.20
2019-03-13T21:06:56.679Z,124.60
2019-03-13T21:09:28.380Z,134.20
2019-03-13T21:12:00.350Z,128.00
2019-03-13T21:14:32.185Z,132.60
2019-03-13T21:17:04.095Z,133.00
2019-03-13T21:19:36.047Z,122.40
2019-03-13T21:22:07.985Z,138.20
2019-03-13T21:24:39.501Z,131.80
2019-03-13T21:27:11.052Z,126.40
2019-03-13T21:29:42.630Z,121.60
2019-03-13T21:32:14.383Z,138.80
2019-03-13T21:34:46.071Z,135.40
2019-03-13T21:37:17.932Z,139.40
2019-03-13T21:39:49.400Z,139.80
2019-03-13T21:42:21.287Z,135.60
2019-03-13T21:44:53.210Z,131.20
2019-03-13T21:47:24.883Z,131.00
2019-03-13T21:49:56.487Z,133.40
2019-03-13T21:52:28.245Z,137.20
2019-03-13T21:54:59.790Z,133.60
2019-03-13T21:57:31.580Z,122.20
2019-03-13T22:00:03.105Z,134.80
2019-03-13T22:02:36.620Z,139.60
2019-03-13T22:05:08.531Z,133.20
2019-03-13T22:07:40.107Z,143.00
2019-03-13T22:10:12.437Z,136.60
2019-03-13T22:12:44.362Z,146.20
2019-03-13T22:15:16.822Z,141.60
2019-03-13T22:17:48.506Z,145.60
2019-03-13T22:20:20.175Z,141.80
2019-03-13T22:22:51.890Z,148.80
2019-03-13T22:25:23.570Z,147.60
2019-03-13T22:27:55.101Z,157.00
2019-03-13T22:30:28.813Z,140.60
2019-03-13T22:33:00.394Z,133.40
2019-03-13T22:35:31.861Z,139.40
2019-03-13T22:38:03.327Z,138.60
2019-03-13T22:40:35.048Z,137.60
2019-03-13T22:43:06.619Z,142.20
2019-03-13T22:45:38.521Z,128.40
2019-03-13T22:48:10.371Z,131.40
2019-03-13T22:50:41.829Z,135.20
2019-03-13T22:53:13.472Z,134.40
2019-03-13T22:55:45.046Z,141.40
2019-03-13T22:58:17.859Z,142.20
2019-03-13T23:01:00.064Z,146.60
2019-03-13T23:03:33.643Z,127.20
2019-03-13T23:06:05.830Z,141.80
2019-03-13T23:08:37.358Z,143.25
2019-03-13T23:11:09.100Z,149.40
2019-03-13T23:13:40.775Z,147.20
2019-03-13T23:16:12.716Z,148.60
2019-03-13T23:18:44.544Z,142.60
2019-03-13T23:21:16.301Z,142.80
2019-03-13T23:23:48.621Z,146.60
2019-03-13T23:26:20.076Z,139.80
2019-03-13T23:28:51.983Z,143.80
2019-03-13T23:31:23.645Z,137.60
2019-03-13T23:33:55.513Z,144.40
2019-03-13T23:36:27.097Z,130.60
2019-03-13T23:38:58.939Z,133.40
2019-03-13T23:41:31.653Z,155.60
2019-03-13T23:44:03.264Z,163.80
2019-03-13T23:46:35.465Z,159.00
2019-03-13T23:49:07.382Z,159.80
2019-03-13T23:51:39.245Z,152.60
2019-03-13T23:54:10.835Z,151.40
2019-03-13T23:56:42.516Z,151.20
2019-03-13T23:59:14.238Z,161.40
